createdAt,value
2022-10-01T00:01:30.987Z,99994.59
2022-10-01T00:03:58.639Z,99980.41
2022-10-01T00:06:26.102Z,99982.88
2022-10-01T00:08:53.607Z,99976.09
2022-10-01T00:11:24.319Z,99976.63
2022-10-01T00:13:52.800Z,100046.38
2022-10-01T00:16:26.390Z,100099.28
2022-10-01T00:18:55.022Z,100077.47
2022-10-01T00:21:26.353Z,99977.47
2022-10-01T00:24:04.490Z,99956.22
2022-10-01T00:26:38.921Z,99993.28
2022-10-01T00:29:11.207Z,99998.47
2022-10-01T00:31:39.248Z,99989.47
2022-10-01T00:34:10.938Z,99990.81
2022-10-01T00:36:38.501Z,99987.00
2022-10-01T00:39:08.138Z,99980.50
2022-10-01T00:41:38.502Z,99993.81
2022-10-01T00:44:27.899Z,99990.81
2022-10-01T00:46:58.797Z,99988.91
2022-10-01T00:49:33.584Z,99974.47
2022-10-01T00:52:08.095Z,99988.13
2022-10-01T00:54:45.066Z,99979.13
2022-10-01T00:57:19.062Z,99977.50
2022-10-01T00:59:47.671Z,99981.56
2022-10-01T01:02:15.629Z,99979.41
2022-10-01T01:04:43.315Z,99973.97
2022-10-01T01:07:13.608Z,99980.22
2022-10-01T01:09:48.034Z,99980.50
2022-10-01T01:12:24.806Z,99984.03
2022-10-01T01:15:14.481Z,99975.03
2022-10-01T01:18:14.997Z,99977.78
2022-10-01T01:20:51.698Z,99969.31
2022-10-01T01:23:19.146Z,99976.97
2022-10-01T01:26:05.535Z,99979.91
2022-10-01T01:28:45.038Z,99990.81
2022-10-01T01:31:16.710Z,99991.91
2022-10-01T01:33:49.785Z,99989.19
2022-10-01T01:36:25.569Z,99989.19
2022-10-01T01:38:58.332Z,99988.38
2022-10-01T01:41:30.333Z,99990.81
2022-10-01T01:44:02.211Z,99981.56
2022-10-01T01:46:36.014Z,99990.81
2022-10-01T01:49:05.272Z,99997.09
2022-10-01T01:51:49.025Z,99988.09
2022-10-01T01:54:18.909Z,99987.28
2022-10-01T01:56:50.209Z,99973.38
2022-10-01T01:59:19.815Z,99968.75
2022-10-01T02:01:49.600Z,99978.81
2022-10-01T02:04:21.885Z,99975.56
2022-10-01T02:06:58.552Z,99972.84
2022-10-01T02:09:36.293Z,99965.75
2022-10-01T02:12:19.733Z,99961.38
2022-10-01T02:14:57.697Z,99954.28
2022-10-01T02:17:38.523Z,99944.75
2022-10-01T02:20:19.338Z,99960.28
2022-10-01T02:22:55.159Z,99949.63
2022-10-01T02:25:26.955Z,99959.69
2022-10-01T02:28:01.562Z,99962.41
2022-10-01T02:30:33.062Z,99974.41
2022-10-01T02:33:03.631Z,99979.03
2022-10-01T02:35:32.790Z,99970.59
2022-10-01T02:38:03.524Z,99969.50
2022-10-01T02:40:36.454Z,99959.97
2022-10-01T02:43:12.463Z,99975.22
2022-10-01T02:45:44.773Z,99979.56
2022-10-01T02:48:18.071Z,99977.66
2022-10-01T02:50:52.348Z,99976.84
2022-10-01T02:53:39.078Z,99978.22
2022-10-01T02:56:11.639Z,99981.50
2022-10-01T02:58:42.008Z,99970.31
2022-10-01T03:01:12.197Z,99984.22
2022-10-01T03:03:43.013Z,99986.41
2022-10-01T03:06:10.502Z,99991.59
2022-10-01T03:08:37.983Z,99992.94
2022-10-01T03:11:08.526Z,99971.69
2022-10-01T03:13:38.133Z,99967.91
2022-10-01T03:16:05.691Z,99969.28
2022-10-01T03:18:33.241Z,99972.81
2022-10-01T03:21:00.714Z,99975.00
2022-10-01T03:23:29.226Z,99975.00
2022-10-01T03:25:56.697Z,99978.00
2022-10-01T03:28:26.722Z,99984.28
2022-10-01T03:30:54.258Z,99979.63
2022-10-01T03:33:21.804Z,99988.91
2022-10-01T03:35:49.300Z,100013.16
2022-10-01T03:38:18.915Z,100031.97
2022-10-01T03:40:46.394Z,100039.59
2022-10-01T03:43:13.877Z,100031.44
2022-10-01T03:45:41.385Z,100037.16
2022-10-01T03:48:08.876Z,100031.69
2022-10-01T03:50:36.694Z,100020.81
2022-10-01T03:53:06.782Z,100018.91
2022-10-01T03:55:34.496Z,100023.00
2022-10-01T03:58:02.245Z,100014.00
2022-10-01T04:00:29.719Z,100001.44
2022-10-01T04:02:57.219Z,99999.53
2022-10-01T04:05:25.601Z,99985.09
2022-10-01T04:07:53.294Z,99982.91
2022-10-01T04:10:20.807Z,99976.66
2022-10-01T04:12:48.338Z,99980.19
2022-10-01T04:15:16.932Z,99978.00
2022-10-01T04:17:46.108Z,99981.56
2022-10-01T04:20:16.754Z,99974.75
2022-10-01T04:22:44.938Z,99976.66
2022-10-01T04:25:13.175Z,99972.28
2022-10-01T04:27:42.270Z,99967.69
2022-10-01T04:30:11.265Z,99973.97
2022-10-01T04:32:39.322Z,99975.28
2022-10-01T04:35:11.603Z,99975.28
2022-10-01T04:37:40.551Z,99975.03
2022-10-01T04:40:10.645Z,99978.59
2022-10-01T04:42:43.691Z,99990.03
2022-10-01T04:45:13.079Z,99974.50
2022-10-01T04:47:52.163Z,99966.06
2022-10-01T04:50:20.823Z,99975.59
2022-10-01T04:52:48.805Z,99983.78
2022-10-01T04:55:18.077Z,99982.12
2022-10-01T04:57:48.618Z,99981.88
2022-10-01T05:00:20.219Z,99980.78
2022-10-01T05:02:51.455Z,99979.97
2022-10-01T05:05:21.625Z,99984.31
2022-10-01T05:07:50.070Z,99983.22
2022-10-01T05:10:21.555Z,99990.03
2022-10-01T05:12:51.720Z,99997.41
2022-10-01T05:15:20.063Z,100004.25
2022-10-01T05:17:49.959Z,100023.34
2022-10-01T05:20:23.907Z,100036.13
2022-10-01T05:22:51.389Z,100046.50
2022-10-01T05:25:20.152Z,100040.53
2022-10-01T05:27:48.480Z,100029.63
2022-10-01T05:30:24.186Z,100019.53
2022-10-01T05:32:57.099Z,100037.25
2022-10-01T05:35:27.424Z,100023.63
2022-10-01T05:38:00.868Z,100018.44
2022-10-01T05:40:31.603Z,100021.97
2022-10-01T05:43:03.128Z,100018.16
2022-10-01T05:45:32.020Z,100010.81
2022-10-01T05:48:06.965Z,100003.44
2022-10-01T05:50:42.502Z,100005.63
2022-10-01T05:53:13.976Z,99999.06
2022-10-01T05:55:41.511Z,100005.34
2022-10-01T05:58:12.402Z,100023.63
2022-10-01T06:00:41.596Z,100014.34
2022-10-01T06:03:13.662Z,100007.81
2022-10-01T06:05:41.267Z,99994.72
2022-10-01T06:08:11.619Z,99991.97
2022-10-01T06:10:40.065Z,99985.16
2022-10-01T06:13:08.369Z,99986.56
2022-10-01T06:15:38.484Z,99981.91
2022-10-01T06:18:11.268Z,99983.28
2022-10-01T06:20:40.716Z,99960.59
2022-10-01T06:23:12.241Z,99963.63
2022-10-01T06:25:44.721Z,99960.59
2022-10-01T06:28:14.882Z,99952.97
2022-10-01T06:30:43.611Z,99954.84
2022-10-01T06:33:14.651Z,99970.13
2022-10-01T06:35:44.996Z,99999.63
2022-10-01T06:38:12.918Z,100009.97
2022-10-01T06:40:41.303Z,100004.81
2022-10-01T06:43:10.438Z,100000.72
2022-10-01T06:45:40.686Z,99994.44
2022-10-01T06:48:09.082Z,99990.34
2022-10-01T06:50:38.662Z,99988.16
2022-10-01T06:53:06.245Z,99983.78
2022-10-01T06:55:35.554Z,99983.75
2022-10-01T06:58:07.726Z,99996.84
2022-10-01T07:00:38.955Z,99998.47
2022-10-01T07:03:12.946Z,99999.03
2022-10-01T07:05:40.687Z,100001.50
2022-10-01T07:08:08.945Z,100003.97
2022-10-01T07:10:39.700Z,99995.78
2022-10-01T07:13:12.570Z,99994.94
2022-10-01T07:15:40.793Z,99991.66
2022-10-01T07:18:10.675Z,99978.28
2022-10-01T07:20:40.711Z,99983.19
2022-10-01T07:23:14.716Z,99973.34
2022-10-01T07:25:42.973Z,99973.62
2022-10-01T07:28:18.076Z,99967.91
2022-10-01T07:30:59.603Z,99977.44
2022-10-01T07:33:30.165Z,99974.75
2022-10-01T07:36:01.185Z,99972.25
2022-10-01T07:38:28.736Z,99954.47
2022-10-01T07:40:56.295Z,99955.84
2022-10-01T07:43:23.802Z,99953.09
2022-10-01T07:45:52.511Z,99953.59
2022-10-01T07:48:20.273Z,99947.56
2022-10-01T07:50:50.108Z,99960.66
2022-10-01T07:53:18.446Z,99970.22
2022-10-01T07:55:46.916Z,99967.25
2022-10-01T07:58:14.447Z,99960.72
2022-10-01T08:00:43.446Z,99967.56
2022-10-01T08:03:12.686Z,99962.87
2022-10-01T08:05:43.195Z,99963.09
2022-10-01T08:08:10.809Z,99963.34
2022-10-01T08:10:42.091Z,99960.34
2022-10-01T08:13:17.403Z,99965.53
2022-10-01T08:15:47.180Z,99962.47
2022-10-01T08:18:17.437Z,99953.97
2022-10-01T08:20:45.269Z,99961.63
2022-10-01T08:23:14.801Z,99963.25
2022-10-01T08:25:43.978Z,99957.78
2022-10-01T08:28:13.539Z,99968.72
2022-10-01T08:30:43.071Z,99969.00
2022-10-01T08:33:14.553Z,99961.06
2022-10-01T08:35:43.594Z,99965.19
2022-10-01T08:38:14.399Z,99940.00
2022-10-01T08:40:54.401Z,99934.50
2022-10-01T08:43:40.004Z,99932.56
2022-10-01T08:46:19.074Z,99934.22
2022-10-01T08:49:06.739Z,99930.44
2022-10-01T08:51:44.621Z,99929.66
2022-10-01T08:54:34.760Z,99918.44
2022-10-01T08:57:07.619Z,99926.09
2022-10-01T08:59:41.695Z,99916.22
2022-10-01T09:02:27.855Z,99923.25
2022-10-01T09:05:04.949Z,99925.97
2022-10-01T09:08:15.448Z,99915.47
2022-10-01T09:10:48.477Z,99917.28
2022-10-01T09:13:39.441Z,99919.63
2022-10-01T09:16:30.369Z,99919.13
2022-10-01T09:19:19.365Z,99920.53
2022-10-01T09:22:02.102Z,99919.88
2022-10-01T09:24:44.803Z,99921.09
2022-10-01T09:27:26.852Z,99917.87
2022-10-01T09:30:01.581Z,99914.81
2022-10-01T09:32:37.998Z,99918.25
2022-10-01T09:35:31.136Z,99907.59
2022-10-01T09:38:06.501Z,99902.47
2022-10-01T09:40:45.046Z,99901.09
2022-10-01T09:43:14.176Z,99895.66
2022-10-01T09:45:42.144Z,99894.06
2022-10-01T09:48:50.019Z,99910.06
2022-10-01T09:51:23.026Z,99905.12
2022-10-01T09:54:04.421Z,99904.09
2022-10-01T09:56:38.599Z,99898.75
2022-10-01T09:59:15.749Z,99897.31
2022-10-01T10:01:47.858Z,99893.03
2022-10-01T10:04:23.234Z,99883.69
2022-10-01T10:07:02.428Z,99883.56
2022-10-01T10:09:36.116Z,99871.78
2022-10-01T10:12:04.020Z,99880.13
2022-10-01T10:14:40.818Z,99866.19
2022-10-01T10:17:15.608Z,99856.31
2022-10-01T10:19:51.680Z,99865.28
2022-10-01T10:22:25.035Z,99865.25
2022-10-01T10:24:58.985Z,99858.22
2022-10-01T10:27:30.179Z,99860.03
2022-10-01T10:30:19.376Z,99841.56
2022-10-01T10:32:47.162Z,99857.47
2022-10-01T10:35:26.242Z,99860.88
2022-10-01T10:37:57.253Z,99858.00
2022-10-01T10:40:34.401Z,99847.41
2022-10-01T10:43:02.287Z,99841.03
2022-10-01T10:45:41.886Z,99836.59
2022-10-01T10:48:17.774Z,99837.22
2022-10-01T10:50:47.497Z,99837.59
2022-10-01T10:53:24.269Z,99828.84
2022-10-01T10:55:58.424Z,99825.44
2022-10-01T10:58:34.252Z,99829.50
2022-10-01T11:01:09.758Z,99822.47
2022-10-01T11:03:42.615Z,99814.56
2022-10-01T11:06:12.762Z,99816.38
2022-10-01T11:08:40.789Z,99812.63
2022-10-01T11:11:21.087Z,99806.59
2022-10-01T11:14:23.344Z,99807.75
2022-10-01T11:17:18.985Z,99805.47
2022-10-01T11:20:05.496Z,99790.81
2022-10-01T11:22:43.530Z,99779.31
2022-10-01T11:25:33.731Z,99773.53
2022-10-01T11:28:12.590Z,99767.78
2022-10-01T11:30:45.905Z,99766.31
2022-10-01T11:33:28.415Z,99751.94
2022-10-01T11:36:34.355Z,99758.22
2022-10-01T11:39:12.023Z,99747.19
2022-10-01T11:42:00.488Z,99746.12
2022-10-01T11:44:35.633Z,99743.72
2022-10-01T11:47:09.414Z,99733.28
2022-10-01T11:49:36.875Z,99730.06
2022-10-01T11:52:32.603Z,99729.75
2022-10-01T11:55:30.379Z,99723.47
2022-10-01T11:58:40.310Z,99719.59
2022-10-01T12:01:18.755Z,99722.69
2022-10-01T12:04:02.683Z,99720.81
2022-10-01T12:06:49.435Z,99716.56
2022-10-01T12:09:29.176Z,99707.12
2022-10-01T12:12:13.727Z,99719.31
2022-10-01T12:15:18.348Z,99707.09
2022-10-01T12:17:56.985Z,99711.47
2022-10-01T12:20:43.037Z,99708.56
2022-10-01T12:23:22.750Z,99704.47
2022-10-01T12:26:02.277Z,99699.91
2022-10-01T12:28:39.948Z,99699.56
2022-10-01T12:31:35.698Z,99698.31
2022-10-01T12:34:45.385Z,99702.19
2022-10-01T12:37:15.986Z,99696.66
2022-10-01T12:39:48.059Z,99701.63
2022-10-01T12:42:43.566Z,99702.41
2022-10-01T12:45:28.969Z,99704.34
2022-10-01T12:48:15.722Z,99705.22
2022-10-01T12:51:03.799Z,99699.84
2022-10-01T12:53:42.227Z,99694.81
2022-10-01T12:56:30.919Z,99699.00
2022-10-01T12:59:14.472Z,99688.19
2022-10-01T13:02:17.170Z,99679.19
2022-10-01T13:05:21.908Z,99668.69
2022-10-01T13:08:11.377Z,99650.53
2022-10-01T13:10:41.546Z,99660.94
2022-10-01T13:13:14.082Z,99643.59
2022-10-01T13:15:47.571Z,99641.97
2022-10-01T13:18:32.599Z,99639.53
2022-10-01T13:21:10.204Z,99637.09
2022-10-01T13:23:58.145Z,99634.47
2022-10-01T13:26:45.776Z,99632.06
2022-10-01T13:29:36.102Z,99627.06
2022-10-01T13:32:25.722Z,99619.09
2022-10-01T13:34:54.059Z,99612.75
2022-10-01T13:37:30.555Z,99617.31
2022-10-01T13:40:01.319Z,99599.16
2022-10-01T13:42:43.234Z,99596.72
2022-10-01T13:45:25.113Z,99590.25
2022-10-01T13:47:52.913Z,99592.59
2022-10-01T13:50:25.560Z,99586.84
2022-10-01T13:53:05.606Z,99615.88
2022-10-01T13:55:33.742Z,99593.72
2022-10-01T13:58:06.952Z,99598.75
2022-10-01T14:00:34.844Z,99595.97
2022-10-01T14:03:24.961Z,99586.81
2022-10-01T14:05:58.918Z,99589.53
2022-10-01T14:08:32.143Z,99588.87
2022-10-01T14:11:28.329Z,99585.84
2022-10-01T14:14:17.122Z,99591.72
2022-10-01T14:16:48.642Z,99587.44
2022-10-01T14:19:21.650Z,99593.06
2022-10-01T14:21:55.810Z,99592.25
2022-10-01T14:24:42.260Z,99597.28
2022-10-01T14:27:42.159Z,99602.78
2022-10-01T14:30:35.281Z,99601.69
2022-10-01T14:34:19.102Z,99606.53
2022-10-01T14:36:51.653Z,99597.00
2022-10-01T14:39:22.952Z,99597.44
2022-10-01T14:41:53.847Z,99596.00
2022-10-01T14:44:39.844Z,99580.84
2022-10-01T14:47:35.962Z,99587.84
2022-10-01T14:50:12.254Z,99583.03
2022-10-01T14:52:45.029Z,99574.78
2022-10-01T14:55:19.380Z,99569.63
2022-10-01T14:57:51.123Z,99571.97
2022-10-01T15:00:21.881Z,99565.47
2022-10-01T15:02:52.072Z,99573.66
2022-10-01T15:05:32.820Z,99579.66
2022-10-01T15:08:11.737Z,99574.47
2022-10-01T15:11:07.190Z,99576.31
2022-10-01T15:13:38.990Z,99584.06
2022-10-01T15:16:21.820Z,99580.06
2022-10-01T15:18:53.483Z,99579.47
2022-10-01T15:21:27.775Z,99585.50
2022-10-01T15:23:55.598Z,99583.75
2022-10-01T15:26:27.503Z,99581.31
2022-10-01T15:29:13.521Z,99585.19
2022-10-01T15:31:42.092Z,99584.78
2022-10-01T15:34:14.889Z,99596.56
2022-10-01T15:36:44.180Z,99604.31
2022-10-01T15:39:36.574Z,99599.94
2022-10-01T15:42:09.510Z,99604.44
2022-10-01T15:44:49.973Z,99604.31
2022-10-01T15:47:20.617Z,99605.72
2022-10-01T15:50:09.774Z,99607.75
2022-10-01T15:52:53.012Z,99600.25
2022-10-01T15:55:44.510Z,99604.87
2022-10-01T15:58:12.189Z,99595.13
2022-10-01T16:00:48.923Z,99590.41
2022-10-01T16:03:23.357Z,99603.63
2022-10-01T16:05:55.915Z,99594.34
2022-10-01T16:08:26.609Z,99600.41
2022-10-01T16:11:16.066Z,99604.34
2022-10-01T16:13:52.732Z,99592.44
2022-10-01T16:16:29.335Z,99584.03
2022-10-01T16:19:18.697Z,99580.97
2022-10-01T16:22:15.643Z,99599.03
2022-10-01T16:24:45.694Z,99594.03
2022-10-01T16:27:21.880Z,99598.75
2022-10-01T16:30:00.127Z,99597.72
2022-10-01T16:32:31.701Z,99601.34
2022-10-01T16:35:36.115Z,99606.28
2022-10-01T16:38:08.283Z,99612.31
2022-10-01T16:40:40.189Z,99614.00
2022-10-01T16:43:09.043Z,99616.81
2022-10-01T16:45:40.268Z,99621.25
2022-10-01T16:48:19.904Z,99623.50
2022-10-01T16:50:48.079Z,99617.81
2022-10-01T16:53:24.607Z,99611.06
2022-10-01T16:55:52.713Z,99598.84
2022-10-01T16:58:21.728Z,99599.66
2022-10-01T17:00:52.012Z,99608.16
2022-10-01T17:03:24.436Z,99604.37
2022-10-01T17:05:52.002Z,99595.16
2022-10-01T17:08:19.482Z,99598.47
2022-10-01T17:10:51.303Z,99592.19
2022-10-01T17:13:18.815Z,99597.69
2022-10-01T17:15:48.063Z,99593.09
2022-10-01T17:18:17.625Z,99595.56
2022-10-01T17:20:45.999Z,99600.47
2022-10-01T17:23:18.707Z,99602.13
2022-10-01T17:25:47.109Z,99599.41
2022-10-01T17:28:20.809Z,99599.41
2022-10-01T17:30:50.094Z,99596.44
2022-10-01T17:33:22.647Z,99581.72
2022-10-01T17:35:54.551Z,99584.47
2022-10-01T17:38:23.108Z,99588.25
2022-10-01T17:40:56.307Z,99592.34
2022-10-01T17:43:24.300Z,99590.19
2022-10-01T17:45:57.603Z,99590.19
2022-10-01T17:48:29.110Z,99597.00
2022-10-01T17:51:15.778Z,99597.00
2022-10-01T17:53:43.536Z,99603.53
2022-10-01T17:56:17.842Z,99599.72
2022-10-01T17:58:46.379Z,99604.06
2022-10-01T18:01:22.263Z,99604.87
2022-10-01T18:03:55.311Z,99605.69
2022-10-01T18:06:24.008Z,99602.69
2022-10-01T18:08:55.512Z,99613.59
2022-10-01T18:11:25.539Z,99619.63
2022-10-01T18:13:53.225Z,99621.78
2022-10-01T18:16:23.679Z,99627.75
2022-10-01T18:21:47.643Z,99634.47
2022-10-01T18:24:18.577Z,99657.16
2022-10-01T18:26:46.620Z,99653.88
2022-10-01T18:29:23.390Z,99666.66
2022-10-01T18:32:21.993Z,99662.56
2022-10-01T18:35:01.452Z,99668.59
2022-10-01T18:37:51.681Z,99681.72
2022-10-01T18:40:41.413Z,99674.88
2022-10-01T18:43:20.827Z,99686.63
2022-10-01T18:46:09.777Z,99682.00
2022-10-01T18:48:47.401Z,99686.66
2022-10-01T18:51:26.731Z,99689.37
2022-10-01T18:54:21.511Z,99689.91
2022-10-01T18:57:18.669Z,99691.56
2022-10-01T19:00:03.243Z,99687.47
2022-10-01T19:03:06.455Z,99688.31
2022-10-01T19:05:39.654Z,99677.38
2022-10-01T19:08:13.513Z,99688.81
2022-10-01T19:10:59.834Z,99706.81
2022-10-01T19:13:34.662Z,99701.38
2022-10-01T19:16:14.104Z,99699.19
2022-10-01T19:18:55.071Z,99690.97
2022-10-01T19:21:33.002Z,99705.66
2022-10-01T19:24:12.431Z,99696.34
2022-10-01T19:26:44.242Z,99700.19
2022-10-01T19:29:23.742Z,99696.63
2022-10-01T19:32:04.909Z,99704.81
2022-10-01T19:34:45.402Z,99711.66
2022-10-01T19:37:28.801Z,99704.03
2022-10-01T19:40:08.693Z,99705.97
2022-10-01T19:42:41.401Z,99702.69
2022-10-01T19:45:27.288Z,99704.06
2022-10-01T19:48:03.870Z,99712.22
2022-10-01T19:50:35.332Z,99713.88
2022-10-01T19:53:05.576Z,99707.81
2022-10-01T19:55:39.757Z,99716.25
2022-10-01T19:58:18.607Z,99717.38
2022-10-01T20:00:49.240Z,99718.75
2022-10-01T20:03:34.851Z,99721.72
2022-10-01T20:06:08.710Z,99725.53
2022-10-01T20:08:46.174Z,99723.38
2022-10-01T20:11:41.851Z,99725.53
2022-10-01T20:14:41.966Z,99723.09
2022-10-01T20:17:39.113Z,99731.00
2022-10-01T20:20:18.794Z,99733.75
2022-10-01T20:23:23.969Z,99734.31
2022-10-01T20:26:04.867Z,99745.22
2022-10-01T20:28:54.536Z,99744.13
2022-10-01T20:31:27.945Z,99747.13
2022-10-01T20:34:09.962Z,99753.44
2022-10-01T20:36:56.771Z,99742.00
2022-10-01T20:39:35.206Z,99752.59
2022-10-01T20:42:04.625Z,99753.97
2022-10-01T20:44:37.398Z,99761.59
2022-10-01T20:47:12.424Z,99766.22
2022-10-01T20:49:56.915Z,99777.12
2022-10-01T20:52:24.368Z,99767.88
2022-10-01T20:54:54.853Z,99771.97
2022-10-01T20:57:31.589Z,99774.44
2022-10-01T21:00:07.704Z,99782.63
2022-10-01T21:02:50.987Z,99799.47
2022-10-01T21:05:34.666Z,99808.47
2022-10-01T21:08:05.226Z,99808.75
2022-10-01T21:10:49.097Z,99815.84
2022-10-01T21:13:23.740Z,99818.84
2022-10-01T21:16:03.473Z,99813.09
2022-10-01T21:18:43.111Z,99815.53
2022-10-01T21:21:23.271Z,99808.75
2022-10-01T21:24:10.169Z,99826.44
2022-10-01T21:26:54.725Z,99830.78
2022-10-01T21:29:28.995Z,99826.13
2022-10-01T21:32:20.223Z,99830.75
2022-10-01T21:34:50.723Z,99825.00
2022-10-01T21:37:31.687Z,99827.13
2022-10-01T21:40:52.050Z,99832.28
2022-10-01T21:43:43.798Z,99838.22
2022-10-01T21:46:37.877Z,99832.44
2022-10-01T21:49:12.550Z,99824.75
2022-10-01T21:52:17.716Z,99839.44
2022-10-01T21:55:03.038Z,99832.38
2022-10-01T21:57:51.650Z,99831.50
2022-10-01T22:00:28.868Z,99838.28
2022-10-01T22:03:11.668Z,99830.94
2022-10-01T22:05:41.988Z,99833.34
2022-10-01T22:08:12.391Z,99824.88
2022-10-01T22:10:44.116Z,99833.81
2022-10-01T22:13:24.525Z,99842.44
2022-10-01T22:15:57.472Z,99851.94
2022-10-01T22:18:36.905Z,99831.88
2022-10-01T22:21:10.146Z,99835.66
2022-10-01T22:23:41.670Z,99822.06
2022-10-01T22:26:17.531Z,99830.47
2022-10-01T22:28:53.861Z,99825.87
2022-10-01T22:31:28.734Z,99826.44
2022-10-01T22:34:02.815Z,99841.37
2022-10-01T22:36:40.100Z,99834.28
2022-10-01T22:39:22.414Z,99834.25
2022-10-01T22:42:20.886Z,99837.75
2022-10-01T22:44:48.414Z,99845.53
2022-10-01T22:47:31.156Z,99849.81
2022-10-01T22:50:24.762Z,99860.38
2022-10-01T22:53:04.280Z,99859.19
2022-10-01T22:55:42.615Z,99858.91
2022-10-01T22:58:24.050Z,99872.69
2022-10-01T23:01:05.616Z,99868.62
2022-10-01T23:03:38.850Z,99875.19
2022-10-01T23:06:10.809Z,99879.84
2022-10-01T23:08:53.613Z,99882.13
2022-10-01T23:11:24.119Z,99883.78
2022-10-01T23:14:05.533Z,99873.75
2022-10-01T23:16:53.010Z,99862.91
2022-10-01T23:19:52.009Z,99868.34
2022-10-01T23:22:28.525Z,99862.66
2022-10-01T23:25:29.161Z,99871.37
2022-10-01T23:28:33.759Z,99869.16
2022-10-01T23:31:22.964Z,99860.97
2022-10-01T23:34:20.139Z,99849.25
2022-10-01T23:36:56.925Z,99866.13
2022-10-01T23:39:33.326Z,99867.28
2022-10-01T23:42:04.821Z,99868.88
2022-10-01T23:44:43.329Z,99868.88
2022-10-01T23:47:18.206Z,99869.13
2022-10-01T23:49:54.251Z,99869.94
2022-10-01T23:52:48.405Z,99867.22
2022-10-01T23:55:40.418Z,99878.41
2022-10-01T23:58:12.181Z,99882.50
